• Join FlightAware (Why Join?)
  • Login
  • US Flag 
03:44AM EDT


 

Airport Tracker/Info


-or-


 

Live Flight TrackerFlight Track Log ✈ CA611 ✈ 09-May-2013 ✈ CYBD / QBC - CYVR

Flight Track Log - Related Links

Times and Time Zones

All times are in EDT time to prevent confusion due to time zone crossing. See the CA611 flight status page for this flight to view local times or setup timezone preferences in your user account.

Time Position Orientation Groundspeed Altitude Reporting Facility
EDT Latitude Longitude Course Direction KTS MPH feet Rate Location/Type
07:04PM 52.2000 -126.8500 134° Southeast 210 242 13,200  Level Vancouver Center
07:05PM 52.1500 -126.7833 141° Southeast 220 253 14,700 1,500 Climbing Vancouver Center
07:06PM 52.1000 -126.7333 148° Southeast 230 265 16,200 1,380 Climbing Vancouver Center
07:07PM 52.0667 -126.6500 123° Southeast 230 265 17,500 1,200 Climbing Vancouver Center
07:08PM 52.0167 -126.6000 148° Southeast 230 265 18,600 1,080 Climbing Vancouver Center
07:09PM 52.0354 -126.1957 145° Southeast  Level FlightAware Approximate
07:09PM 51.9667 -126.5333 141° Southeast 230 265 19,700  Level Vancouver Center
07:10PM 51.9167 -126.4500 134° Southeast 230 265 20,900 1,140 Climbing Vancouver Center
07:11PM 51.8667 -126.4000 148° Southeast 230 265 22,000 1,020 Climbing Vancouver Center
07:12PM 51.8167 -126.3167 134° Southeast 240 276 23,000 1,020 Climbing Vancouver Center
07:13PM 51.7667 -126.2500 140° Southeast 240 276 24,100 960 Climbing Vancouver Center
07:14PM 51.7167 -126.1667 134° Southeast 250 288 25,000 900 Climbing Vancouver Center
07:15PM 51.6500 -126.1167 155° Southeast 250 288 25,900 900 Climbing Vancouver Center
07:16PM 51.6000 -126.0333 134° Southeast 250 288 26,800 540 Climbing Vancouver Center
07:17PM 51.5500 -125.9667 140° Southeast 250 288 27,000 60 Climbing Vancouver Center
07:18PM 51.4833 -125.8833 142° Southeast 280 322 27,000  Level Vancouver Center
07:19PM 51.4333 -125.7833 129° Southeast 290 334 27,000  Level Vancouver Center
07:20PM 51.3667 -125.7000 142° Southeast 310 357 27,000  Level Vancouver Center
07:21PM 51.3000 -125.6167 142° Southeast 310 357 27,000  Level Vancouver Center
07:22PM 51.2333 -125.5333 142° Southeast 310 357 27,000  Level Vancouver Center
07:23PM 51.1667 -125.4500 142° Southeast 310 357 27,000  Level Vancouver Center
07:24PM 51.1000 -125.3667 142° Southeast 310 357 27,000  Level Vancouver Center
07:25PM 51.0333 -125.2667 137° Southeast 310 357 27,000  Level Vancouver Center
07:26PM 50.9500 -125.1833 148° Southeast 310 357 27,000  Level Vancouver Center
07:27PM 50.8833 -125.1000 142° Southeast 310 357 27,000  Level Vancouver Center
07:28PM 50.8167 -125.0167 142° Southeast 310 357 27,000  Level Vancouver Center
07:29PM 50.7500 -124.9333 142° Southeast 310 357 27,000  Level Vancouver Center
07:30PM 50.6833 -124.8333 136° Southeast 310 357 27,000  Level Vancouver Center
07:31PM 50.6167 -124.7500 142° Southeast 310 357 27,000  Level Vancouver Center
07:32PM 50.5500 -124.6667 142° Southeast 310 357 27,000  Level Vancouver Center
07:33PM 50.4833 -124.5833 141° Southeast 310 357 27,000  Level Vancouver Center
07:34PM 50.4167 -124.5000 141° Southeast 310 357 27,000  Level Vancouver Center
07:35PM 50.3500 -124.4000 136° Southeast 310 357 27,000  Level Vancouver Center
07:36PM 50.2667 -124.3167 147° Southeast 310 357 27,000  Level Vancouver Center
07:37PM 50.2000 -124.2500 147° Southeast 310 357 27,000 -900 Level Vancouver Center
07:38PM 50.1333 -124.1667 141° Southeast 320 368 25,300 -2,160 Descending Vancouver Center
07:39PM 50.0500 -124.0667 142° Southeast 350 403 22,700 -2,460 Descending Vancouver Center
07:40PM 49.9833 -123.9500 132° Southeast 340 391 20,400 -2,400 Descending Vancouver Center
07:41PM 49.9167 -123.8833 147° Southeast 340 391 17,900 -2,400 Descending Vancouver Center
07:42PM 49.8333 -123.8000 147° Southeast 330 380 15,700 -2,100 Descending Vancouver Center
07:43PM 49.7667 -123.7167 141° Southeast 310 357 13,700 -2,160 Descending Vancouver Center
07:44PM 49.7000 -123.6500 147° Southeast 300 345 11,400 -1,860 Descending Vancouver Center
07:45PM 49.6333 -123.6000 154° Southeast 300 345 10,000 -720 Descending Vancouver Center
07:46PM 49.5500 -123.5500 159° South 280 322 10,000  Level Vancouver Center
07:47PM 49.4833 -123.4833 147° Southeast 280 322 10,000  Level Vancouver Center
07:48PM 49.4167 -123.4333 154° Southeast 280 322 10,000 -360 Level Vancouver Center
07:49PM 49.3500 -123.3667 147° Southeast 280 322 9,300 -1,140 Descending Vancouver Center
07:50PM 49.2833 -123.3167 154° Southeast 270 311 7,800 -1,500 Descending Vancouver Center
07:51PM 49.2667 -123.2167 104° East 280 322 6,300 -1,500 Descending Vancouver Center
07:52PM 49.2500 -123.1167 104° East 270 311 4,900 -1,440 Descending Vancouver Center
07:53PM 49.2333 -123.0000 102° East 260 299 3,500 -1,380 Descending Vancouver Center
07:54PM 49.1833 -122.9333 139° Southeast 230 265 2,200 -900 Descending Vancouver Center
07:55PM 49.1500 -122.9833 224° Southwest 190 219 1,800 -480 Descending Vancouver Center
07:56PM 49.1500 -123.0667 270° West 160 184 1,300 -660 Descending Vancouver Center
07:57PM 49.1667 -123.1333 291° West 140 161 500 -840 Descending Vancouver Center